Time;durP1;ratioP1;P1;durP2;ratioP2;P2;SDS_P1;SDS_P2;PMS_P1;PMS_P2;Temp;Humidity;BMP_temperature;BMP_pressure;BME280_temperature;BME280_humidity;BME280_pressure;Samples;Min_cycle;Max_cycle;Signal;HPM_P1;HPM_P2
2022/05/28 00:01:41;;;;;;;2.05;0.93;;;;;;;12.81;59.33;99120.34;4182502;28;20745;-53
2022/05/28 00:03:44;;;;;;;0.55;0.55;;;;;;;12.77;59.22;99113.69;4162966;28;20212;-52
2022/05/28 00:05:45;;;;;;;1.52;1.40;;;;;;;12.74;59.05;99117.78;4178104;28;20613;-53
2022/05/28 00:07:47;;;;;;;0.75;0.70;;;;;;;12.74;59.23;99115.03;4172947;28;20205;-53
2022/05/28 00:09:49;;;;;;;0.95;0.90;;;;;;;12.66;59.55;99111.84;4173331;28;20224;-53
2022/05/28 00:11:52;;;;;;;1.05;0.95;;;;;;;12.63;59.52;99118.66;4195615;28;20283;-52
2022/05/28 00:13:54;;;;;;;2.55;1.33;;;;;;;12.60;59.92;99112.84;4176297;28;20216;-53
2022/05/28 00:15:59;;;;;;;1.27;1.10;;;;;;;12.57;59.65;99107.88;4178403;28;20200;-53
2022/05/28 00:18:01;;;;;;;2.13;1.23;;;;;;;12.53;59.80;99107.53;4174998;28;20215;-52
2022/05/28 00:20:04;;;;;;;0.70;0.70;;;;;;;12.49;59.95;99106.34;4179248;28;20635;-52
2022/05/28 00:22:05;;;;;;;0.75;0.75;;;;;;;12.44;60.06;99100.75;4158471;28;20281;-52
2022/05/28 00:24:07;;;;;;;1.85;0.90;;;;;;;12.41;60.01;99101.25;4170703;28;20196;-53
2022/05/28 00:26:09;;;;;;;0.85;0.77;;;;;;;12.38;60.17;99103.66;4190292;28;20203;-53
2022/05/28 00:28:11;;;;;;;2.45;2.25;;;;;;;12.35;60.69;99109.63;4175733;28;20263;-52
2022/05/28 00:30:15;;;;;;;1.23;1.05;;;;;;;12.24;60.63;99103.13;4175453;28;20936;-52
2022/05/28 00:32:17;;;;;;;1.00;0.90;;;;;;;12.20;60.73;99103.88;4169325;28;20633;-53
2022/05/28 00:34:19;;;;;;;2.03;0.90;;;;;;;12.11;61.10;99097.94;4188133;28;20261;-52
2022/05/28 00:36:20;;;;;;;1.20;0.80;;;;;;;12.00;61.23;99096.09;4192289;28;20210;-52
2022/05/28 00:38:24;;;;;;;0.80;0.80;;;;;;;11.94;61.51;99097.09;4172447;28;20204;-53
2022/05/28 00:40:26;;;;;;;0.98;0.88;;;;;;;11.93;61.23;99094.56;4180665;28;20204;-53
2022/05/28 00:42:29;;;;;;;1.38;1.02;;;;;;;11.97;61.60;99095.75;4175213;28;20224;-53
2022/05/28 00:44:30;;;;;;;2.80;1.45;;;;;;;11.90;61.29;99095.09;4181433;28;20258;-54
2022/05/28 00:46:33;;;;;;;1.85;1.20;;;;;;;11.87;61.37;99090.06;4176476;28;20216;-52
2022/05/28 00:48:36;;;;;;;1.25;1.15;;;;;;;11.88;61.70;99086.25;4177724;28;20208;-53
2022/05/28 00:50:38;;;;;;;1.27;1.17;;;;;;;11.83;61.70;99088.91;4176053;28;20260;-52
2022/05/28 00:52:41;;;;;;;1.02;0.93;;;;;;;11.78;61.72;99086.88;4186387;28;20234;-52
2022/05/28 00:54:44;;;;;;;0.95;0.95;;;;;;;11.72;61.79;99093.31;4173786;28;20204;-53
2022/05/28 00:56:46;;;;;;;0.82;0.82;;;;;;;11.68;61.95;99089.44;4188120;28;20674;-53
2022/05/28 00:58:48;;;;;;;2.05;1.05;;;;;;;11.55;62.12;99092.41;4190497;28;20290;-54
2022/05/28 01:00:50;;;;;;;0.98;0.98;;;;;;;11.47;62.09;99090.06;4170452;28;20249;-53
2022/05/28 01:02:55;;;;;;;0.88;0.88;;;;;;;11.42;62.22;99092.69;4155021;28;20317;-53
2022/05/28 01:05:02;;;;;;;1.27;1.17;;;;;;;11.42;62.40;99098.16;4172890;28;20231;-53
2022/05/28 01:07:48;;;;;;;2.33;1.20;;;;;;;11.28;62.33;99091.28;4173378;28;20657;-52
2022/05/28 01:09:59;;;;;;;1.33;1.23;;;;;;;11.20;62.85;99083.44;4173184;28;20231;-53
2022/05/28 01:12:10;;;;;;;5.45;0.88;;;;;;;11.24;62.42;99089.25;4167536;28;20344;-54
2022/05/28 01:14:21;;;;;;;8.40;1.05;;;;;;;11.26;62.72;99087.94;4166340;28;20208;-53
2022/05/28 01:16:34;;;;;;;1.58;1.25;;;;;;;11.23;62.73;99088.41;4173791;28;20211;-53
2022/05/28 01:18:39;;;;;;;1.83;1.00;;;;;;;11.11;63.08;99087.59;4166679;28;20219;-53
2022/05/28 01:20:53;;;;;;;1.35;1.30;;;;;;;11.13;63.01;99090.94;4152483;28;20228;-52
2022/05/28 01:23:22;;;;;;;1.02;0.90;;;;;;;11.09;62.82;99087.00;4161733;28;20311;-54
2022/05/28 01:25:55;;;;;;;1.20;1.13;;;;;;;11.04;63.23;99084.13;4171531;28;20211;-55
2022/05/28 01:28:02;;;;;;;3.35;1.05;;;;;;;11.02;63.14;99089.03;4167642;28;20275;-52
2022/05/28 01:30:06;;;;;;;1.90;1.45;;;;;;;10.93;63.40;99085.00;4155747;28;20264;-53
2022/05/28 01:32:09;;;;;;;0.90;0.90;;;;;;;10.90;63.57;99093.66;4172369;28;20231;-53
2022/05/28 01:34:11;;;;;;;1.23;0.80;;;;;;;10.91;63.45;99078.91;4186123;28;20261;-55
2022/05/28 01:36:14;;;;;;;4.30;0.90;;;;;;;10.89;63.53;99092.00;4169540;28;20607;-53
2022/05/28 01:38:17;;;;;;;1.75;1.00;;;;;;;10.87;63.59;99087.03;4168727;28;20209;-56
2022/05/28 01:40:20;;;;;;;1.25;1.25;;;;;;;10.81;63.51;99088.78;4189484;28;20211;-53
2022/05/28 01:42:22;;;;;;;0.90;0.90;;;;;;;10.77;64.06;99082.13;4175896;28;20341;-52
2022/05/28 01:44:24;;;;;;;3.80;0.90;;;;;;;10.72;63.87;99087.47;4174505;28;20230;-53
2022/05/28 01:46:29;;;;;;;5.00;1.88;;;;;;;10.65;63.95;99091.38;4174414;28;20196;-54
2022/05/28 01:48:31;;;;;;;1.02;1.00;;;;;;;10.60;63.97;99077.56;4178439;28;21108;-55
2022/05/28 01:50:37;;;;;;;0.90;0.90;;;;;;;10.58;64.28;99083.31;4176241;28;20228;-55
2022/05/28 01:52:40;;;;;;;6.18;1.08;;;;;;;10.58;64.21;99077.00;4174557;28;20250;-54
2022/05/28 01:54:45;;;;;;;1.42;1.15;;;;;;;10.59;64.34;99074.03;4186286;28;20200;-54
2022/05/28 01:56:50;;;;;;;2.58;1.55;;;;;;;10.60;64.34;99074.84;4169795;28;20456;-54
2022/05/28 01:58:52;;;;;;;1.23;1.13;;;;;;;10.56;64.37;99071.75;4178650;28;20236;-55
2022/05/28 02:00:53;;;;;;;1.10;1.00;;;;;;;10.52;64.37;99066.97;4177245;28;20196;-54
2022/05/28 02:03:00;;;;;;;1.27;1.00;;;;;;;10.55;64.14;99077.47;4193295;28;20218;-54
2022/05/28 02:05:02;;;;;;;2.67;1.60;;;;;;;10.55;64.09;99066.53;4192934;28;20211;-54
2022/05/28 02:07:05;;;;;;;1.27;1.10;;;;;;;10.51;64.28;99071.63;4175509;28;20262;-55
2022/05/28 02:09:11;;;;;;;1.70;1.20;;;;;;;10.51;63.88;99070.78;4174710;28;20325;-55
2022/05/28 02:11:19;;;;;;;0.98;0.98;;;;;;;10.46;63.97;99068.78;4193206;28;20199;-54
2022/05/28 02:13:32;;;;;;;1.95;1.20;;;;;;;10.46;63.97;99067.91;4178186;28;20235;-54
2022/05/28 02:15:40;;;;;;;1.17;1.13;;;;;;;10.39;63.83;99061.72;4192747;28;20203;-54
2022/05/28 02:17:52;;;;;;;2.20;1.20;;;;;;;10.29;64.23;99062.31;4191306;28;20235;-55
2022/05/28 02:20:07;;;;;;;1.00;0.90;;;;;;;10.23;64.13;99062.41;4179314;28;20204;-55
2022/05/28 02:22:26;;;;;;;1.10;1.08;;;;;;;10.18;64.06;99059.53;4174785;28;20250;-54
2022/05/28 02:24:41;;;;;;;0.80;0.80;;;;;;;10.10;64.47;99054.44;4192007;28;21124;-54
2022/05/28 02:27:14;;;;;;;1.27;1.10;;;;;;;10.05;64.78;99054.28;4186733;28;20196;-55
2022/05/28 02:29:16;;;;;;;1.20;1.00;;;;;;;9.98;64.60;99048.91;4173050;28;20231;-54
2022/05/28 02:31:26;;;;;;;0.90;0.90;;;;;;;9.95;64.51;99051.25;4187274;28;20220;-54
2022/05/28 02:33:30;;;;;;;0.90;0.90;;;;;;;9.93;64.95;99053.38;4168120;28;20669;-55
2022/05/28 02:35:32;;;;;;;7.18;1.13;;;;;;;9.91;64.96;99058.25;4171035;28;20200;-55
2022/05/28 02:37:33;;;;;;;0.90;0.90;;;;;;;9.81;65.10;99058.00;4176806;28;20199;-54
2022/05/28 02:39:35;;;;;;;1.23;1.13;;;;;;;9.75;65.15;99051.53;4191579;28;20200;-55
2022/05/28 02:41:38;;;;;;;0.98;0.93;;;;;;;9.67;65.56;99051.03;4172656;28;20216;-54
2022/05/28 02:43:39;;;;;;;1.73;1.55;;;;;;;9.59;65.80;99054.06;4175906;28;20698;-54
2022/05/28 02:45:41;;;;;;;1.23;1.13;;;;;;;9.60;65.42;99051.13;4175839;28;20569;-54
2022/05/28 02:47:44;;;;;;;1.13;1.13;;;;;;;9.50;65.97;99045.38;4173244;28;20620;-53
2022/05/28 02:49:45;;;;;;;1.15;1.08;;;;;;;9.48;65.64;99052.13;4193238;28;20230;-55
2022/05/28 02:51:47;;;;;;;1.15;1.15;;;;;;;9.43;66.26;99054.72;4177044;28;20247;-55
2022/05/28 02:53:51;;;;;;;1.30;1.20;;;;;;;9.45;65.95;99056.16;4164173;28;20205;-55
2022/05/28 02:55:53;;;;;;;2.58;0.98;;;;;;;9.46;65.81;99057.81;4192719;28;20239;-56
2022/05/28 02:57:55;;;;;;;1.33;1.13;;;;;;;9.46;65.55;99059.72;4180408;28;20200;-55
2022/05/28 02:59:57;;;;;;;1.77;1.65;;;;;;;9.41;65.76;99059.59;4181063;28;20196;-55
2022/05/28 03:01:58;;;;;;;1.27;1.20;;;;;;;9.37;66.03;99059.22;4181574;28;20791;-54
2022/05/28 03:04:02;;;;;;;1.77;1.65;;;;;;;9.27;66.38;99063.50;4178685;28;20262;-55
2022/05/28 03:06:04;;;;;;;1.33;0.93;;;;;;;9.19;66.44;99063.81;4176220;28;20258;-56
2022/05/28 03:08:06;;;;;;;1.10;0.90;;;;;;;9.17;66.50;99060.50;4175961;28;20205;-55
2022/05/28 03:10:08;;;;;;;1.40;1.40;;;;;;;9.18;66.24;99064.91;4197534;28;20666;-55
2022/05/28 03:12:10;;;;;;;1.40;1.30;;;;;;;9.23;66.09;99065.06;4196617;28;20220;-56
2022/05/28 03:14:12;;;;;;;1.40;1.40;;;;;;;9.26;65.96;99064.56;4196412;28;20196;-56
2022/05/28 03:16:14;;;;;;;1.38;1.08;;;;;;;9.29;66.07;99075.88;4195106;28;20218;-56
2022/05/28 03:18:16;;;;;;;1.52;1.42;;;;;;;9.30;65.63;99071.28;4163785;28;20240;-56
2022/05/28 03:20:18;;;;;;;3.65;0.93;;;;;;;9.27;65.43;99061.63;4187837;28;20638;-55
2022/05/28 03:22:20;;;;;;;1.10;1.10;;;;;;;9.25;65.88;99062.91;4174143;28;20236;-56
2022/05/28 03:24:21;;;;;;;1.23;1.13;;;;;;;9.22;65.87;99058.75;4166099;28;20637;-55
2022/05/28 03:26:26;;;;;;;1.48;1.33;;;;;;;9.15;65.69;99058.00;4190568;28;20234;-55
2022/05/28 03:28:27;;;;;;;1.67;1.02;;;;;;;9.10;65.89;99054.28;4177417;28;20734;-54
2022/05/28 03:30:29;;;;;;;1.10;1.00;;;;;;;9.03;66.19;99061.72;4161830;28;20832;-54
2022/05/28 03:32:31;;;;;;;0.70;0.70;;;;;;;8.87;67.26;99065.00;4190679;28;20227;-54
2022/05/28 03:34:33;;;;;;;0.93;0.93;;;;;;;8.84;66.87;99063.59;4175604;28;20211;-55
2022/05/28 03:36:34;;;;;;;1.10;1.10;;;;;;;8.86;67.16;99063.34;4172868;28;20211;-55
2022/05/28 03:38:39;;;;;;;0.98;0.95;;;;;;;8.83;66.96;99058.34;4187118;28;20265;-55
2022/05/28 03:40:41;;;;;;;1.48;1.25;;;;;;;8.78;67.18;99060.91;4160380;28;20201;-55
2022/05/28 03:42:42;;;;;;;1.15;1.13;;;;;;;8.73;67.33;99058.88;4193688;28;20251;-55
2022/05/28 03:44:44;;;;;;;1.40;1.30;;;;;;;8.72;67.66;99056.38;4189200;28;20207;-55
2022/05/28 03:46:46;;;;;;;3.65;1.70;;;;;;;8.74;67.61;99057.00;4180916;28;20211;-55
2022/05/28 03:48:48;;;;;;;1.17;1.17;;;;;;;8.74;67.37;99057.81;4181128;28;20207;-55
2022/05/28 03:50:50;;;;;;;1.30;1.20;;;;;;;8.74;67.02;99070.63;4181623;28;20800;-55
2022/05/28 03:52:52;;;;;;;1.90;1.33;;;;;;;8.77;66.87;99070.16;4189863;28;20219;-55
2022/05/28 03:54:53;;;;;;;1.20;0.98;;;;;;;8.81;66.52;99068.69;4173232;28;20288;-56
2022/05/28 03:56:58;;;;;;;1.48;1.38;;;;;;;8.82;66.97;99062.16;4184819;28;20230;-55
2022/05/28 03:59:00;;;;;;;2.10;1.40;;;;;;;8.86;66.97;99068.81;4176506;28;20211;-55
2022/05/28 04:01:01;;;;;;;1.38;1.23;;;;;;;8.89;66.68;99073.84;4160015;28;20266;-56
2022/05/28 04:03:06;;;;;;;3.38;1.35;;;;;;;8.91;66.50;99068.97;4194042;28;20235;-56
2022/05/28 04:05:09;;;;;;;6.13;1.05;;;;;;;8.95;67.15;99079.22;4174671;28;20212;-56
2022/05/28 04:07:12;;;;;;;4.43;2.33;;;;;;;8.99;66.53;99082.31;4172497;28;20697;-54
2022/05/28 04:09:14;;;;;;;1.80;1.70;;;;;;;9.02;66.80;99079.97;4161515;28;20247;-54
2022/05/28 04:11:17;;;;;;;1.58;1.52;;;;;;;9.07;66.74;99082.00;4172549;28;20252;-54
2022/05/28 04:13:19;;;;;;;0.80;0.80;;;;;;;9.10;66.59;99082.44;4160593;28;20213;-55
2022/05/28 04:15:20;;;;;;;1.38;0.82;;;;;;;9.14;66.69;99082.81;4172523;28;20709;-54
2022/05/28 04:17:22;;;;;;;1.30;1.30;;;;;;;9.11;66.68;99083.25;4176652;28;20208;-54
2022/05/28 04:19:24;;;;;;;1.02;1.00;;;;;;;9.12;66.61;99074.00;4179293;28;20315;-54
2022/05/28 04:21:26;;;;;;;1.20;1.10;;;;;;;9.12;66.88;99074.00;4179748;28;20204;-54
2022/05/28 04:23:28;;;;;;;1.23;1.13;;;;;;;9.06;66.92;99070.28;4179233;28;20661;-55
2022/05/28 04:25:30;;;;;;;2.60;0.95;;;;;;;9.02;67.36;99070.97;4191289;28;20261;-55
2022/05/28 04:27:31;;;;;;;6.43;2.00;;;;;;;9.00;67.39;99076.66;4175489;28;20259;-55
2022/05/28 04:29:36;;;;;;;1.00;1.00;;;;;;;8.93;67.81;99075.03;4176437;28;20217;-55
2022/05/28 04:31:38;;;;;;;2.40;2.15;;;;;;;8.86;68.11;99077.00;4194652;28;20223;-55
2022/05/28 04:33:40;;;;;;;2.10;1.13;;;;;;;8.96;67.80;99080.06;4173489;28;20678;-56
2022/05/28 04:35:44;;;;;;;1.00;1.00;;;;;;;9.01;67.91;99086.50;4179333;28;20663;-55
2022/05/28 04:37:45;;;;;;;1.30;1.23;;;;;;;9.05;67.85;99090.47;4176718;28;20233;-55
2022/05/28 04:39:47;;;;;;;1.35;1.35;;;;;;;9.10;67.63;99096.09;4174963;28;20654;-55
2022/05/28 04:41:48;;;;;;;1.08;1.08;;;;;;;9.13;67.46;99089.31;4177155;28;20219;-55
2022/05/28 04:43:50;;;;;;;1.60;1.30;;;;;;;9.17;67.33;99093.25;4179209;28;20208;-55
2022/05/28 04:45:53;;;;;;;1.35;1.25;;;;;;;9.21;67.42;99099.94;4176379;28;20705;-54
2022/05/28 04:47:55;;;;;;;1.40;1.30;;;;;;;9.29;67.22;99105.09;4160490;28;20236;-53
2022/05/28 04:49:57;;;;;;;2.30;1.15;;;;;;;9.35;67.29;99101.47;4181690;28;20204;-55
2022/05/28 04:51:58;;;;;;;0.98;0.88;;;;;;;9.39;66.83;99108.13;4194116;28;20277;-55
2022/05/28 04:54:00;;;;;;;1.10;1.10;;;;;;;9.44;66.88;99111.84;4187054;28;20216;-55
2022/05/28 04:56:02;;;;;;;1.38;1.23;;;;;;;9.47;67.36;99110.53;4178463;28;20685;-56
2022/05/28 04:58:04;;;;;;;3.05;1.20;;;;;;;9.23;67.93;99108.75;4175173;28;20236;-55
2022/05/28 05:00:12;;;;;;;2.53;1.00;;;;;;;9.05;68.35;99108.72;4196010;28;20636;-55
2022/05/28 05:02:15;;;;;;;1.58;1.42;;;;;;;9.06;68.57;99107.66;4192718;28;20709;-55
2022/05/28 05:04:17;;;;;;;2.67;2.47;;;;;;;9.10;68.68;99103.41;4177933;28;20261;-54
2022/05/28 05:06:19;;;;;;;1.40;1.30;;;;;;;9.18;68.29;99100.38;4177263;28;20208;-56
2022/05/28 05:08:21;;;;;;;1.52;1.15;;;;;;;9.22;68.37;99107.06;4173013;28;20215;-56
2022/05/28 05:10:23;;;;;;;2.05;1.20;;;;;;;9.28;67.86;99112.44;4164039;28;20232;-54
2022/05/28 05:12:24;;;;;;;1.35;1.30;;;;;;;9.24;68.12;99105.78;4177494;28;20228;-54
2022/05/28 05:14:26;;;;;;;1.10;0.95;;;;;;;9.29;68.31;99105.91;4191157;28;20207;-55
2022/05/28 05:16:28;;;;;;;1.52;1.42;;;;;;;9.32;68.21;99108.22;4166832;28;20209;-54
2022/05/28 05:18:29;;;;;;;1.75;1.23;;;;;;;9.35;68.43;99106.94;4176883;28;20211;-55
2022/05/28 05:20:31;;;;;;;5.95;1.80;;;;;;;9.42;68.07;99102.22;4180284;28;20200;-54
2022/05/28 05:22:33;;;;;;;1.58;1.23;;;;;;;9.51;68.10;99106.31;4174400;28;20669;-56
2022/05/28 05:24:34;;;;;;;1.70;1.17;;;;;;;9.61;67.80;99096.50;4173521;28;20274;-56
2022/05/28 05:26:36;;;;;;;1.13;1.00;;;;;;;9.72;67.74;99097.63;4177770;28;20648;-57
2022/05/28 05:28:38;;;;;;;3.58;1.10;;;;;;;9.86;66.44;99104.56;4163295;28;20216;-56
2022/05/28 05:30:45;;;;;;;1.00;1.00;;;;;;;10.12;66.73;99104.22;4189042;28;20617;-56
2022/05/28 05:32:46;;;;;;;0.80;0.80;;;;;;;10.23;65.84;99097.97;4169429;28;20263;-56
2022/05/28 05:34:48;;;;;;;0.98;0.98;;;;;;;10.45;65.84;99102.69;4189786;28;20204;-55
2022/05/28 05:36:50;;;;;;;1.80;1.10;;;;;;;10.52;65.38;99111.59;4174811;28;20203;-56
2022/05/28 05:38:51;;;;;;;0.93;0.80;;;;;;;10.71;65.25;99104.13;4183166;28;20642;-55
2022/05/28 05:40:53;;;;;;;1.17;1.17;;;;;;;10.82;64.66;99106.06;4174687;28;20288;-55
2022/05/28 05:42:58;;;;;;;0.88;0.88;;;;;;;11.16;64.22;99106.03;4193164;28;20219;-55
2022/05/28 05:45:00;;;;;;;1.58;1.00;;;;;;;11.40;63.98;99115.91;4191238;28;20203;-56
2022/05/28 05:47:02;;;;;;;0.60;0.60;;;;;;;11.54;62.07;99118.16;4174532;28;20513;-54
2022/05/28 05:49:04;;;;;;;0.77;0.77;;;;;;;11.77;61.98;99112.63;4194656;28;20196;-53
2022/05/28 05:51:07;;;;;;;1.00;0.85;;;;;;;12.02;61.23;99110.41;4187505;28;20359;-54
2022/05/28 05:53:09;;;;;;;0.80;0.80;;;;;;;12.21;60.73;99117.34;4190753;28;20223;-55
2022/05/28 05:55:11;;;;;;;0.98;0.98;;;;;;;12.48;60.39;99107.44;4173164;28;20600;-55
2022/05/28 05:57:12;;;;;;;1.17;1.17;;;;;;;12.74;60.13;99115.03;4172393;28;20207;-54
2022/05/28 05:59:14;;;;;;;8.63;0.95;;;;;;;12.84;57.67;99115.19;4178378;28;20235;-54
2022/05/28 06:01:19;;;;;;;2.60;0.77;;;;;;;12.74;58.33;99120.50;4173320;28;20199;-54
2022/05/28 06:03:21;;;;;;;1.20;1.02;;;;;;;12.96;57.81;99112.41;4174543;28;20224;-55
2022/05/28 06:05:23;;;;;;;0.70;0.68;;;;;;;13.11;58.08;99105.19;4177596;28;20666;-53
2022/05/28 06:07:25;;;;;;;2.97;2.10;;;;;;;13.30;57.46;99108.53;4173834;28;20241;-54
2022/05/28 06:09:27;;;;;;;0.63;0.63;;;;;;;13.36;57.13;99107.50;4172953;28;20227;-54
2022/05/28 06:11:34;;;;;;;1.10;0.98;;;;;;;13.52;56.80;99112.13;4176620;28;20227;-54
2022/05/28 06:13:36;;;;;;;0.70;0.70;;;;;;;13.61;56.73;99111.44;4174257;28;20204;-54
2022/05/28 06:15:37;;;;;;;1.00;0.80;;;;;;;13.55;56.23;99106.94;4189673;28;20205;-54
2022/05/28 06:17:39;;;;;;;1.05;0.88;;;;;;;13.71;55.99;99110.72;4172900;28;20342;-54
2022/05/28 06:19:41;;;;;;;0.73;0.70;;;;;;;13.61;56.27;99111.44;4193194;28;20222;-54
2022/05/28 06:21:42;;;;;;;0.70;0.70;;;;;;;13.73;55.56;99111.28;4179928;28;20226;-53
2022/05/28 06:23:44;;;;;;;0.60;0.60;;;;;;;13.87;56.16;99105.16;4174811;28;20212;-55
2022/05/28 06:25:46;;;;;;;1.45;0.70;;;;;;;14.05;55.51;99102.09;4190661;28;20653;-55
2022/05/28 06:27:48;;;;;;;1.33;1.20;;;;;;;14.09;55.35;99102.41;4176768;28;20237;-55
2022/05/28 06:29:49;;;;;;;1.33;1.27;;;;;;;14.22;55.56;99108.34;4194840;28;20207;-54
2022/05/28 06:31:51;;;;;;;0.40;0.40;;;;;;;14.30;54.75;99105.13;4180183;28;20232;-54
2022/05/28 06:33:53;;;;;;;0.60;0.60;;;;;;;14.46;55.20;99098.69;4176556;28;20222;-54
2022/05/28 06:35:59;;;;;;;1.23;1.02;;;;;;;14.43;53.55;99101.97;4178599;28;20281;-53
2022/05/28 06:38:04;;;;;;;4.07;0.80;;;;;;;14.52;55.05;99099.56;4194686;28;20277;-53
2022/05/28 06:40:09;;;;;;;6.82;1.10;;;;;;;14.66;53.77;99103.56;4176426;28;20618;-54
2022/05/28 06:42:10;;;;;;;1.98;1.00;;;;;;;14.44;52.74;99100.84;4174471;28;20745;-53
2022/05/28 06:44:13;;;;;;;1.13;1.02;;;;;;;14.51;52.42;99100.66;4198130;28;20646;-53
2022/05/28 06:46:14;;;;;;;2.17;0.82;;;;;;;14.61;52.50;99096.06;4172249;28;20211;-54
2022/05/28 06:48:17;;;;;;;0.50;0.50;;;;;;;14.74;53.66;99095.63;4174048;28;20262;-53
2022/05/28 06:52:40;;;;;;;0.85;0.85;;;;;;;15.13;52.62;99097.06;4194670;28;20232;-55
2022/05/28 06:54:42;;;;;;;0.60;0.50;;;;;;;15.35;53.33;99097.78;4179001;28;20208;-51
2022/05/28 06:56:44;;;;;;;0.88;0.68;;;;;;;15.23;51.87;99105.38;4181167;28;20305;-51
2022/05/28 06:58:47;;;;;;;2.22;0.60;;;;;;;15.42;52.97;99101.13;4198416;28;20234;-53
2022/05/28 07:00:48;;;;;;;1.58;0.60;;;;;;;15.64;51.65;99096.28;4197446;28;20226;-51
2022/05/28 07:02:50;;;;;;;0.88;0.65;;;;;;;15.22;50.73;99092.69;4165750;28;20279;-52
2022/05/28 07:04:52;;;;;;;0.60;0.55;;;;;;;15.36;52.02;99093.91;4179915;28;20213;-52
2022/05/28 07:06:54;;;;;;;4.93;0.80;;;;;;;15.68;53.33;99094.66;4195796;28;20714;-53
2022/05/28 07:08:55;;;;;;;1.83;0.68;;;;;;;15.83;51.94;99091.94;4176269;28;20199;-52
2022/05/28 07:10:59;;;;;;;0.70;0.55;;;;;;;15.44;51.07;99095.34;4180779;28;20208;-53
2022/05/28 07:13:01;;;;;;;1.75;0.90;;;;;;;15.68;51.39;99086.38;4181353;28;20273;-53
2022/05/28 07:15:03;;;;;;;2.17;0.82;;;;;;;15.67;51.37;99090.25;4176741;28;20205;-53
2022/05/28 07:17:05;;;;;;;0.45;0.45;;;;;;;15.68;51.74;99089.13;4180209;28;20201;-51
2022/05/28 07:19:07;;;;;;;1.83;0.70;;;;;;;15.75;52.11;99091.66;4179837;28;20250;-53
2022/05/28 07:21:09;;;;;;;0.43;0.40;;;;;;;15.76;51.84;99087.81;4173455;28;20196;-52
2022/05/28 07:23:20;;;;;;;1.13;0.52;;;;;;;15.48;51.72;99085.44;4181949;28;20251;-52
2022/05/28 07:25:22;;;;;;;0.40;0.40;;;;;;;15.41;52.96;99088.44;4177875;28;20212;-53
2022/05/28 07:27:25;;;;;;;0.98;0.52;;;;;;;15.37;51.84;99100.28;4178654;28;20274;-52
2022/05/28 07:29:26;;;;;;;0.57;0.57;;;;;;;15.49;52.44;99087.13;4173785;28;20254;-52
2022/05/28 07:31:28;;;;;;;0.70;0.60;;;;;;;15.38;52.93;99080.72;4180443;28;20216;-53
2022/05/28 07:33:32;;;;;;;0.82;0.50;;;;;;;15.46;52.80;99091.22;4173840;28;20265;-53
2022/05/28 07:35:34;;;;;;;4.10;0.95;;;;;;;15.44;52.10;99087.06;4176274;28;20691;-53
2022/05/28 07:37:36;;;;;;;1.30;0.77;;;;;;;15.46;52.10;99087.63;4193746;28;20257;-52
2022/05/28 07:39:38;;;;;;;1.95;0.47;;;;;;;15.33;52.69;99088.09;4186505;28;20661;-52
2022/05/28 07:41:41;;;;;;;0.60;0.55;;;;;;;15.05;53.71;99081.00;4181254;28;20228;-52
2022/05/28 07:43:43;;;;;;;0.77;0.77;;;;;;;15.33;52.92;99082.59;4160085;28;20209;-53
2022/05/28 07:45:46;;;;;;;0.70;0.70;;;;;;;15.27;53.86;99084.47;4186258;28;20200;-53
2022/05/28 07:47:48;;;;;;;2.60;0.82;;;;;;;15.34;53.24;99084.25;4188046;28;20212;-52
2022/05/28 07:49:49;;;;;;;2.28;0.90;;;;;;;15.72;52.95;99087.50;4174752;28;20694;-53
2022/05/28 07:51:54;;;;;;;0.68;0.50;;;;;;;16.18;52.07;99080.22;4173212;28;20364;-52
2022/05/28 07:53:57;;;;;;;1.48;1.17;;;;;;;16.31;49.48;99069.47;4177272;28;20231;-54
2022/05/28 07:56:03;;;;;;;4.10;0.73;;;;;;;16.93;49.73;99067.34;4168072;28;21233;-54
2022/05/28 07:58:06;;;;;;;1.83;0.68;;;;;;;16.56;48.93;99072.28;4186769;28;20301;-53
2022/05/28 08:00:09;;;;;;;0.60;0.60;;;;;;;16.39;49.62;99074.50;4170454;28;20211;-59
2022/05/28 08:02:13;;;;;;;0.68;0.38;;;;;;;16.04;50.36;99068.84;4158077;28;20223;-54
2022/05/28 08:04:16;;;;;;;0.60;0.60;;;;;;;15.93;50.78;99067.16;4169568;28;20212;-53
2022/05/28 08:06:18;;;;;;;0.50;0.50;;;;;;;15.79;51.43;99068.78;4169945;28;20213;-54
2022/05/28 08:08:22;;;;;;;0.40;0.40;;;;;;;15.68;52.15;99064.28;4187956;28;20705;-53
2022/05/28 08:10:24;;;;;;;0.43;0.43;;;;;;;15.56;51.85;99066.44;4171562;28;20208;-53
2022/05/28 08:12:26;;;;;;;1.25;0.60;;;;;;;15.50;52.59;99073.03;4175202;28;20278;-53
2022/05/28 08:14:27;;;;;;;1.70;1.48;;;;;;;15.69;52.57;99065.94;4172365;28;20223;-53
2022/05/28 08:16:29;;;;;;;0.95;0.70;;;;;;;15.75;51.65;99064.06;4192081;28;20250;-53
2022/05/28 08:18:31;;;;;;;1.55;0.50;;;;;;;15.90;52.34;99061.34;4171336;28;20212;-54
2022/05/28 08:23:08;;;;;;;0.60;0.60;;;;;;;16.51;51.58;99058.50;4185649;28;20250;-54
2022/05/28 08:25:10;;;;;;;19.98;8.15;;;;;;;16.43;51.21;99055.44;4170830;28;20630;-52
2022/05/28 08:27:12;;;;;;;35.63;12.73;;;;;;;16.26;50.63;99055.66;4189926;28;20234;-54
2022/05/28 08:29:13;;;;;;;8.27;4.30;;;;;;;16.09;49.81;99060.56;4188941;28;20212;-53
2022/05/28 08:31:16;;;;;;;5.18;2.03;;;;;;;16.08;50.37;99058.91;4187549;28;20199;-54
2022/05/28 08:33:19;;;;;;;9.63;3.92;;;;;;;16.22;51.58;99060.06;4191555;28;20231;-53
2022/05/28 08:35:21;;;;;;;7.40;2.50;;;;;;;16.46;51.65;99061.25;4161092;28;20568;-53
2022/05/28 08:37:23;;;;;;;6.00;1.40;;;;;;;16.56;51.21;99050.19;4190747;28;20199;-53
2022/05/28 08:39:27;;;;;;;4.53;0.90;;;;;;;16.99;51.53;99060.69;4191050;28;20208;-53
2022/05/28 08:41:44;;;;;;;3.00;1.20;;;;;;;17.08;49.29;99057.09;4170488;28;20215;-53
2022/05/28 08:44:03;;;;;;;4.07;0.60;;;;;;;17.08;49.33;99058.22;4188007;28;20230;-53
2022/05/28 08:46:09;;;;;;;0.50;0.50;;;;;;;16.73;48.15;99059.03;4180327;28;20196;-53
2022/05/28 08:48:13;;;;;;;2.45;0.55;;;;;;;16.74;49.83;99060.69;4187795;28;20356;-53
2022/05/28 08:50:16;;;;;;;1.63;0.40;;;;;;;16.72;50.23;99060.16;4174243;28;20244;-53
2022/05/28 08:52:33;;;;;;;1.50;0.52;;;;;;;16.96;49.99;99055.72;4174721;28;20232;-54
2022/05/28 08:54:43;;;;;;;0.60;0.47;;;;;;;16.85;49.87;99059.59;4168925;28;20238;-53
2022/05/28 08:56:45;;;;;;;3.25;0.70;;;;;;;16.91;49.34;99061.25;4193546;28;20230;-54
2022/05/28 08:58:54;;;;;;;0.70;0.50;;;;;;;17.06;49.24;99055.72;4188825;28;20215;-53
2022/05/28 09:00:59;;;;;;;1.90;0.93;;;;;;;17.82;49.86;99055.25;4193671;28;20194;-54
2022/05/28 09:03:11;;;;;;;1.48;0.80;;;;;;;18.02;49.00;99049.63;4179969;28;20230;-54
2022/05/28 09:05:32;;;;;;;1.42;0.63;;;;;;;18.25;49.38;99048.09;4176826;28;20258;-53
2022/05/28 09:07:35;;;;;;;2.25;0.70;;;;;;;18.30;46.94;99050.81;4188972;28;20942;-54
2022/05/28 09:09:44;;;;;;;1.08;0.40;;;;;;;18.23;47.43;99050.31;4177176;28;20210;-54
2022/05/28 09:11:52;;;;;;;0.68;0.60;;;;;;;18.15;48.60;99053.69;4189421;28;20231;-53
2022/05/28 09:13:54;;;;;;;2.38;0.57;;;;;;;18.21;47.29;99055.31;4190671;28;20198;-53
2022/05/28 09:15:58;;;;;;;1.55;0.40;;;;;;;18.25;48.23;99048.09;4174176;28;20824;-54
2022/05/28 09:17:59;;;;;;;0.93;0.60;;;;;;;18.35;48.26;99048.06;4158258;28;20320;-53
2022/05/28 09:20:32;;;;;;;0.40;0.40;;;;;;;18.21;46.87;99047.00;4174931;28;20250;-53
2022/05/28 09:22:34;;;;;;;0.30;0.30;;;;;;;17.67;46.67;99040.63;4166855;28;20231;-54
2022/05/28 09:24:36;;;;;;;0.55;0.50;;;;;;;18.01;47.01;99052.66;4199474;28;20203;-54
2022/05/28 09:26:50;;;;;;;0.40;0.40;;;;;;;18.49;47.32;99043.53;4173770;28;20212;-53
2022/05/28 09:29:09;;;;;;;1.17;0.47;;;;;;;18.03;45.17;99050.44;4171374;28;20632;-53
2022/05/28 09:31:30;;;;;;;1.42;0.45;;;;;;;18.13;47.21;99033.75;4190183;28;20685;-53
2022/05/28 09:33:58;;;;;;;0.45;0.45;;;;;;;18.48;45.71;99033.56;4186709;28;20284;-53
2022/05/28 09:36:20;;;;;;;0.50;0.50;;;;;;;18.53;42.35;99027.97;4177568;28;20230;-53
2022/05/28 09:38:58;;;;;;;5.50;0.40;;;;;;;18.97;44.04;99032.31;4186003;28;20289;-53
2022/05/28 09:41:16;;;;;;;4.82;0.60;;;;;;;19.03;42.41;99033.06;4189277;28;20275;-54
2022/05/28 09:43:38;;;;;;;0.82;0.82;;;;;;;19.57;41.86;99044.78;4194634;28;20214;-54
2022/05/28 09:46:01;;;;;;;0.60;0.55;;;;;;;20.08;41.96;99026.34;4173185;28;20593;-53
2022/05/28 09:48:03;;;;;;;1.55;0.30;;;;;;;20.20;41.00;99026.75;4190518;28;20730;-53
2022/05/28 09:50:17;;;;;;;0.40;0.40;;;;;;;19.93;39.83;99032.09;4171962;28;20204;-52
2022/05/28 09:52:23;;;;;;;0.30;0.30;;;;;;;20.43;41.16;99031.38;4191365;28;22234;-53
2022/05/28 09:54:30;;;;;;;0.70;0.50;;;;;;;20.00;40.44;99033.38;4194717;28;20203;-53